x

Virginia Beach 64 Nm East Of Virginia Beach, Va (44014) Wave Buoy

11:50pm - Fri 29th Jul 2016 All times are EDT. -4 hours from GMT.

  • Sig Wave height 2.3ft
  • Swell Direction
  • Peak Period 6s
  • Average Period 5s
  • Wind
    7mph, 9mph gusts
  • Sea Temp 83°f
  • 空気 Temp 81°f
  • Sea Pressure 1013.7mb
  • Virginia Beach 64 Nm East Of Virginia Beach, Va
  • Virginia Beach 64 Nm East Of Virginia Beach, Va

More Historic Weather Station data

Upgrade to MSW Pro to gain access to the past 30 days of data for over 8000 Wavebouys and Weather Stations around the globe.

Join Pro

Comparision Forecast

View Surf forecast
   
Fri 07/29 11:50pm 2.5ft 6s 5s 7 9 mph 1013.7mb 83f 81f
10:50pm 2.5ft 6s 5s 9
mph
1013.8mb 83f 82f
9:50pm 2.5ft 5s 5s 9 11 mph 1013.2mb 83f 82f
8:50pm 3ft 6s 5s 9 11 mph 1012.6mb 83f 82f
7:50pm 2.5ft 6s 4s 9 11 mph 1012.3mb 83f 82f
6:50pm 2.5ft 6s 4s 9 11 mph 1011.8mb 83f 83f
5:50pm 2.5ft 6s 5s 7
mph
1011.5mb 84f 83f
4:50pm 2.5ft 6s 4s 7 9 mph 1011.2mb 84f 83f
3:50pm 2.5ft 5s 4s 7 9 mph 1011.2mb 84f 83f
2:50pm 3ft 6s 4s 9
mph
1011.2mb 84f 82f
1:50pm 3ft 6s 4s 9 11 mph 1011mb 83f 81f
12:50pm 3.5ft 6s 4s 11 13 mph 1011.2mb 83f 82f
11:50am 3.5ft 6s 4s 13 16 mph 1011.3mb 83f 83f
10:50am 3ft 6s 4s 13 16 mph 1011.1mb 83f 83f
9:50am 3.5ft 5s 4s 13 16 mph 1010.5mb 83f 83f
8:50am 3.5ft 5s 4s 16 20 mph 1010.2mb 83f 83f
7:50am 3.5ft 4s 4s 16 18 mph 1009.9mb 82f 83f
6:50am 3.5ft 5s 4s 16 18 mph 1009.5mb 82f 83f
5:50am 3ft 5s 4s 18 20 mph 1009mb 81f 83f
4:50am 2.5ft 5s 4s 18 20 mph 1008.9mb 81f 83f
3:50am 2.5ft 5s 4s 16 18 mph 1009.1mb 81f 83f
2:50am 3ft 5s 4s 16 18 mph 1009.8mb 81f 83f
1:50am 3ft 4s 4s 13 16 mph 1010.7mb 81f 83f
12:50am 2.5ft 4s 4s 16 18 mph 1010.8mb 81f 84f
Thu 07/28 11:50pm 2.5ft 4s 4s 13 16 mph 1010.4mb 82f 84f
10:50pm 2.5ft 4s 4s 16 18 mph 1009.9mb 81f 84f
9:50pm 2.5ft 4s 4s 16 18 mph 1010.5mb 82f 84f
8:50pm 2.5ft 4s 4s 16 18 mph 1010.3mb 82f 84f
7:50pm 2ft 6s 4s 13 16 mph 1010.4mb 82f 84f
6:50pm 2.5ft 7s 4s 11 13 mph 1010.2mb 83f 84f
5:50pm 2.5ft 5s 4s 11 13 mph 1010.2mb 83f 84f
4:50pm 2.5ft 7s 4s 9 11 mph 1010.5mb 83f 84f
3:50pm 2.5ft 6s 4s 11 13 mph 1010.7mb 84f 84f
2:50pm 2ft 8s 4s 11 13 mph 1011.4mb 84f 83f
1:50pm 1.6ft 8s 4s 11 13 mph 1012.2mb 84f 83f
12:50pm 1.6ft 8s 5s 11 13 mph 1012.8mb 84f 83f
11:50am 1.6ft 8s 4s 9
mph
1013mb 84f 83f
10:50am 1.6ft 8s 5s 7 9 mph 1013.1mb 83f 82f
9:50am 1.6ft 6s 4s 7 9 mph 1013.2mb 82f 82f
8:50am 2ft 6s 5s  -  2 mph 1013.4mb 81f 82f
7:50am 2ft 6s 4s 4
mph
1013.3mb 81f 82f
6:50am 2ft 6s 5s 7
mph
1013mb 81f 81f
5:50am 2ft 6s 5s 4 7 mph 1012.7mb 81f 81f
4:50am 2ft 6s 4s 9
mph
1012.1mb 82f 82f
3:50am 2ft 6s 4s 7 9 mph 1012.1mb 82f 82f
2:50am 2ft 6s 5s 9 11 mph 1012.2mb 82f 82f
1:50am 2.5ft 6s 5s 11 16 mph 1012.7mb 82f 83f
12:50am 2ft 6s 4s 7 9 mph 1012.9mb 83f 83f
Wed 07/27 11:50pm 2ft 5s 5s 9 11 mph 1012.7mb 83f 82f
10:50pm 2.5ft 6s 5s 9
mph
1013.1mb 83f 83f
9:50pm 2.5ft 6s 5s 9
mph
1013.1mb 83f 83f
8:50pm 2.5ft 5s 5s 7 9 mph 1013.1mb 83f 83f
7:50pm 2ft 6s 5s 7
mph
1013.2mb 84f 83f
6:50pm 2.5ft 6s 5s 4
mph
1012.4mb 84f 83f
5:50pm 2.5ft 6s 5s 4 7 mph 1012.5mb 85f 83f
4:50pm 2.5ft 6s 5s 2 4 mph 1012.7mb 85f 84f
3:50pm 2.5ft 5s 5s 4
mph
1013.4mb 83f 83f
2:50pm 2.5ft 6s 5s 4
mph
1013.5mb 83f 83f
1:50pm 2.5ft 6s 5s 7
mph
1013.6mb 82f 82f
12:50pm 3ft 6s 5s 7
mph
1013.9mb 82f 82f
11:50am 2.5ft 6s 5s 4 7 mph 1014.2mb 81f 82f
10:50am 2.5ft 6s 5s 4
mph
1014.4mb 81f 81f
9:50am 2.5ft 6s 5s 7 9 mph 1014.2mb 80f 81f
8:50am 2.5ft 6s 5s 4
mph
1014.3mb 80f 80f
7:50am 2.5ft 6s 5s 4
mph
1013.9mb 79f 80f
6:50am 3ft 6s 5s 2
mph
1013.4mb 80f 80f
5:50am 3ft 6s 5s 7 9 mph 1013.2mb 79f 81f
4:50am 3.5ft 6s 4s 4 7 mph 1013.1mb 79f 81f
3:50am 3.5ft 6s 4s 9 11 mph 1012.9mb 80f 80f
2:50am 3.5ft 6s 5s 13 18 mph 1013.7mb 80f 82f
1:50am 3.5ft 6s 5s 11 13 mph 1013.5mb 80f 81f
12:50am 3.5ft 6s 5s 2
mph
1013.7mb 80f 81f
Tue 07/26 11:50pm 3ft 6s 5s 2 4 mph 1013.9mb 80f 81f
10:50pm 3ft 6s 5s 4
mph
1013.5mb 80f 81f
9:50pm 3ft 6s 5s 2 4 mph 1013.8mb 81f 82f
8:50pm 3ft 6s 5s  -  2 mph 1013.7mb 81f 82f
7:50pm 3ft 6s 5s 2
mph
1013.6mb 81f 82f
6:50pm 3ft 6s 5s 4
mph
1013mb 81f 82f
5:50pm 3ft 6s 5s 4
mph
1013mb 81f 83f
4:50pm 3.5ft 6s 5s 7
mph
1013.1mb 81f 83f
3:50pm 3.5ft 6s 5s 9
mph
1013.5mb 80f 82f
2:50pm 3.5ft 6s 4s 9 11 mph 1013.9mb 81f 82f
1:50pm 3.5ft 6s 4s 9 11 mph 1014.2mb 81f 82f
12:50pm 4ft 6s 5s 9 11 mph 1014.3mb 81f 81f
11:50am 4.5ft 6s 5s 11 13 mph 1014.5mb 81f 81f
10:50am 4.5ft 6s 5s 16 18 mph 1014.2mb 81f 81f
9:50am 4.5ft 6s 5s 18 22 mph 1014mb 81f 81f
8:50am 4.5ft 6s 4s 18 22 mph 1014.1mb 81f 81f
7:50am 4.5ft 6s 4s 20 22 mph 1014mb 81f 81f
6:50am 4.5ft 6s 5s 20 25 mph 1013.9mb 81f 81f
5:50am 4.5ft 6s 4s 20 25 mph 1013.6mb 80f 81f